sensor_id;sensor_type;location;lat;lon;timestamp;P1;durP1;ratioP1;P2;durP2;ratioP2
24411;SDS011;12544;46.760;15.942;2024-02-23T00:01:27;1.48;;;1.20;;
24411;SDS011;12544;46.760;15.942;2024-02-23T00:03:54;1.33;;;1.10;;
24411;SDS011;12544;46.760;15.942;2024-02-23T00:06:20;1.00;;;0.90;;
24411;SDS011;12544;46.760;15.942;2024-02-23T00:08:47;0.98;;;0.98;;
24411;SDS011;12544;46.760;15.942;2024-02-23T00:11:13;1.08;;;0.98;;
24411;SDS011;12544;46.760;15.942;2024-02-23T00:13:39;1.10;;;1.00;;
24411;SDS011;12544;46.760;15.942;2024-02-23T00:16:04;1.08;;;1.08;;
24411;SDS011;12544;46.760;15.942;2024-02-23T00:18:30;2.28;;;1.75;;
24411;SDS011;12544;46.760;15.942;2024-02-23T00:20:56;1.42;;;1.33;;
24411;SDS011;12544;46.760;15.942;2024-02-23T00:23:21;1.40;;;1.30;;
24411;SDS011;12544;46.760;15.942;2024-02-23T00:25:47;1.05;;;0.93;;
24411;SDS011;12544;46.760;15.942;2024-02-23T00:28:13;1.10;;;1.00;;
24411;SDS011;12544;46.760;15.942;2024-02-23T00:30:38;0.90;;;0.90;;
24411;SDS011;12544;46.760;15.942;2024-02-23T00:33:04;0.82;;;0.82;;
24411;SDS011;12544;46.760;15.942;2024-02-23T00:35:30;1.55;;;0.90;;
24411;SDS011;12544;46.760;15.942;2024-02-23T00:37:56;1.02;;;1.02;;
24411;SDS011;12544;46.760;15.942;2024-02-23T00:40:21;0.98;;;0.85;;
24411;SDS011;12544;46.760;15.942;2024-02-23T00:42:48;0.98;;;0.90;;
24411;SDS011;12544;46.760;15.942;2024-02-23T00:45:14;0.90;;;0.90;;
24411;SDS011;12544;46.760;15.942;2024-02-23T00:47:40;1.10;;;1.00;;
24411;SDS011;12544;46.760;15.942;2024-02-23T00:50:05;0.82;;;0.82;;
24411;SDS011;12544;46.760;15.942;2024-02-23T00:52:31;1.00;;;0.70;;
24411;SDS011;12544;46.760;15.942;2024-02-23T00:54:57;1.02;;;0.80;;
24411;SDS011;12544;46.760;15.942;2024-02-23T00:57:23;1.00;;;0.90;;
24411;SDS011;12544;46.760;15.942;2024-02-23T00:59:54;0.80;;;0.80;;
24411;SDS011;12544;46.760;15.942;2024-02-23T01:02:23;0.80;;;0.80;;
24411;SDS011;12544;46.760;15.942;2024-02-23T01:04:48;0.70;;;0.70;;
24411;SDS011;12544;46.760;15.942;2024-02-23T01:07:14;1.10;;;1.00;;
24411;SDS011;12544;46.760;15.942;2024-02-23T01:09:40;0.80;;;0.80;;
24411;SDS011;12544;46.760;15.942;2024-02-23T01:12:06;1.17;;;0.77;;
24411;SDS011;12544;46.760;15.942;2024-02-23T01:14:32;0.90;;;0.90;;
24411;SDS011;12544;46.760;15.942;2024-02-23T01:16:58;0.82;;;0.80;;
24411;SDS011;12544;46.760;15.942;2024-02-23T01:19:23;0.82;;;0.82;;
24411;SDS011;12544;46.760;15.942;2024-02-23T01:21:49;0.80;;;0.80;;
24411;SDS011;12544;46.760;15.942;2024-02-23T01:24:24;0.85;;;0.85;;
24411;SDS011;12544;46.760;15.942;2024-02-23T01:26:51;0.80;;;0.80;;
24411;SDS011;12544;46.760;15.942;2024-02-23T01:29:16;1.33;;;0.80;;
24411;SDS011;12544;46.760;15.942;2024-02-23T01:31:42;0.80;;;0.80;;
24411;SDS011;12544;46.760;15.942;2024-02-23T01:34:08;1.85;;;1.08;;
24411;SDS011;12544;46.760;15.942;2024-02-23T01:36:33;1.00;;;0.90;;
24411;SDS011;12544;46.760;15.942;2024-02-23T01:38:59;0.80;;;0.80;;
24411;SDS011;12544;46.760;15.942;2024-02-23T01:41:25;0.85;;;0.82;;
24411;SDS011;12544;46.760;15.942;2024-02-23T01:43:50;1.20;;;0.70;;
24411;SDS011;12544;46.760;15.942;2024-02-23T01:46:16;1.00;;;0.90;;
24411;SDS011;12544;46.760;15.942;2024-02-23T01:48:44;1.67;;;1.00;;
24411;SDS011;12544;46.760;15.942;2024-02-23T01:51:11;0.80;;;0.80;;
24411;SDS011;12544;46.760;15.942;2024-02-23T01:53:37;1.30;;;1.00;;
24411;SDS011;12544;46.760;15.942;2024-02-23T01:56:04;0.98;;;0.98;;
24411;SDS011;12544;46.760;15.942;2024-02-23T01:58:30;1.17;;;1.08;;
24411;SDS011;12544;46.760;15.942;2024-02-23T02:00:57;1.08;;;0.95;;
24411;SDS011;12544;46.760;15.942;2024-02-23T02:03:23;0.90;;;0.90;;
24411;SDS011;12544;46.760;15.942;2024-02-23T02:05:48;0.90;;;0.90;;
24411;SDS011;12544;46.760;15.942;2024-02-23T02:08:16;0.80;;;0.80;;
24411;SDS011;12544;46.760;15.942;2024-02-23T02:10:42;0.98;;;0.98;;
24411;SDS011;12544;46.760;15.942;2024-02-23T02:13:09;1.05;;;1.00;;
24411;SDS011;12544;46.760;15.942;2024-02-23T02:15:35;1.20;;;1.02;;
24411;SDS011;12544;46.760;15.942;2024-02-23T02:18:01;0.95;;;0.95;;
24411;SDS011;12544;46.760;15.942;2024-02-23T02:20:26;1.38;;;0.90;;
24411;SDS011;12544;46.760;15.942;2024-02-23T02:22:53;1.23;;;1.10;;
24411;SDS011;12544;46.760;15.942;2024-02-23T02:25:19;1.80;;;1.20;;
24411;SDS011;12544;46.760;15.942;2024-02-23T02:27:44;1.13;;;1.02;;
24411;SDS011;12544;46.760;15.942;2024-02-23T02:30:11;1.08;;;1.00;;
24411;SDS011;12544;46.760;15.942;2024-02-23T02:32:37;1.25;;;1.15;;
24411;SDS011;12544;46.760;15.942;2024-02-23T02:35:03;1.73;;;1.15;;
24411;SDS011;12544;46.760;15.942;2024-02-23T02:37:29;0.80;;;0.80;;
24411;SDS011;12544;46.760;15.942;2024-02-23T02:39:55;1.27;;;0.90;;
24411;SDS011;12544;46.760;15.942;2024-02-23T02:42:20;0.70;;;0.70;;
24411;SDS011;12544;46.760;15.942;2024-02-23T02:44:46;1.38;;;0.90;;
24411;SDS011;12544;46.760;15.942;2024-02-23T02:47:11;2.28;;;0.90;;
24411;SDS011;12544;46.760;15.942;2024-02-23T02:49:39;1.55;;;0.98;;
24411;SDS011;12544;46.760;15.942;2024-02-23T02:52:04;0.88;;;0.88;;
24411;SDS011;12544;46.760;15.942;2024-02-23T02:54:31;1.17;;;0.90;;
24411;SDS011;12544;46.760;15.942;2024-02-23T02:56:56;0.80;;;0.80;;
24411;SDS011;12544;46.760;15.942;2024-02-23T02:59:24;0.80;;;0.80;;
24411;SDS011;12544;46.760;15.942;2024-02-23T03:01:49;1.00;;;0.90;;
24411;SDS011;12544;46.760;15.942;2024-02-23T03:04:15;0.90;;;0.90;;
24411;SDS011;12544;46.760;15.942;2024-02-23T03:06:41;1.05;;;1.00;;
24411;SDS011;12544;46.760;15.942;2024-02-23T03:09:06;0.85;;;0.85;;
24411;SDS011;12544;46.760;15.942;2024-02-23T03:11:32;1.00;;;0.90;;
24411;SDS011;12544;46.760;15.942;2024-02-23T03:13:58;0.93;;;0.90;;
24411;SDS011;12544;46.760;15.942;2024-02-23T03:16:24;0.90;;;0.80;;
24411;SDS011;12544;46.760;15.942;2024-02-23T03:18:51;0.90;;;0.90;;
24411;SDS011;12544;46.760;15.942;2024-02-23T03:21:19;0.88;;;0.88;;
24411;SDS011;12544;46.760;15.942;2024-02-23T03:23:46;0.82;;;0.82;;
24411;SDS011;12544;46.760;15.942;2024-02-23T03:26:12;0.95;;;0.90;;
24411;SDS011;12544;46.760;15.942;2024-02-23T03:28:38;0.80;;;0.80;;
24411;SDS011;12544;46.760;15.942;2024-02-23T03:31:04;1.27;;;0.88;;
24411;SDS011;12544;46.760;15.942;2024-02-23T03:33:30;0.90;;;0.90;;
24411;SDS011;12544;46.760;15.942;2024-02-23T03:35:57;0.90;;;0.90;;
24411;SDS011;12544;46.760;15.942;2024-02-23T03:38:23;1.58;;;0.93;;
24411;SDS011;12544;46.760;15.942;2024-02-23T03:40:50;0.90;;;0.90;;
24411;SDS011;12544;46.760;15.942;2024-02-23T03:43:16;0.80;;;0.80;;
24411;SDS011;12544;46.760;15.942;2024-02-23T03:45:41;0.80;;;0.80;;
24411;SDS011;12544;46.760;15.942;2024-02-23T03:48:07;0.85;;;0.85;;
24411;SDS011;12544;46.760;15.942;2024-02-23T03:50:33;0.98;;;0.90;;
24411;SDS011;12544;46.760;15.942;2024-02-23T03:52:58;0.82;;;0.82;;
24411;SDS011;12544;46.760;15.942;2024-02-23T03:55:24;0.85;;;0.85;;
24411;SDS011;12544;46.760;15.942;2024-02-23T03:57:50;0.80;;;0.80;;
24411;SDS011;12544;46.760;15.942;2024-02-23T04:00:15;1.33;;;0.80;;
24411;SDS011;12544;46.760;15.942;2024-02-23T04:02:42;1.25;;;1.10;;
24411;SDS011;12544;46.760;15.942;2024-02-23T04:05:08;1.05;;;1.00;;
24411;SDS011;12544;46.760;15.942;2024-02-23T04:07:33;1.80;;;0.90;;
24411;SDS011;12544;46.760;15.942;2024-02-23T04:09:59;1.05;;;1.00;;
24411;SDS011;12544;46.760;15.942;2024-02-23T04:12:24;0.98;;;0.90;;
24411;SDS011;12544;46.760;15.942;2024-02-23T04:14:50;0.90;;;0.90;;
24411;SDS011;12544;46.760;15.942;2024-02-23T04:17:16;0.98;;;0.98;;
24411;SDS011;12544;46.760;15.942;2024-02-23T04:19:42;0.80;;;0.80;;
24411;SDS011;12544;46.760;15.942;2024-02-23T04:22:08;0.90;;;0.90;;
24411;SDS011;12544;46.760;15.942;2024-02-23T04:24:40;0.80;;;0.80;;
24411;SDS011;12544;46.760;15.942;2024-02-23T04:27:06;0.90;;;0.90;;
24411;SDS011;12544;46.760;15.942;2024-02-23T04:29:33;1.00;;;1.00;;
24411;SDS011;12544;46.760;15.942;2024-02-23T04:32:04;0.88;;;0.88;;
24411;SDS011;12544;46.760;15.942;2024-02-23T04:34:30;1.05;;;1.05;;
24411;SDS011;12544;46.760;15.942;2024-02-23T04:36:56;1.02;;;0.95;;
24411;SDS011;12544;46.760;15.942;2024-02-23T04:39:21;1.00;;;0.90;;
24411;SDS011;12544;46.760;15.942;2024-02-23T04:41:47;1.20;;;0.75;;
24411;SDS011;12544;46.760;15.942;2024-02-23T04:44:13;0.90;;;0.80;;
24411;SDS011;12544;46.760;15.942;2024-02-23T04:46:38;0.80;;;0.80;;
24411;SDS011;12544;46.760;15.942;2024-02-23T04:49:06;1.00;;;0.90;;
24411;SDS011;12544;46.760;15.942;2024-02-23T04:51:32;0.80;;;0.80;;
24411;SDS011;12544;46.760;15.942;2024-02-23T04:53:57;0.90;;;0.90;;
24411;SDS011;12544;46.760;15.942;2024-02-23T04:56:23;1.10;;;1.00;;
24411;SDS011;12544;46.760;15.942;2024-02-23T04:58:48;1.00;;;0.90;;
24411;SDS011;12544;46.760;15.942;2024-02-23T05:01:14;1.10;;;1.00;;
24411;SDS011;12544;46.760;15.942;2024-02-23T05:03:40;0.88;;;0.88;;
24411;SDS011;12544;46.760;15.942;2024-02-23T05:06:06;0.90;;;0.90;;
24411;SDS011;12544;46.760;15.942;2024-02-23T05:08:31;0.90;;;0.90;;
24411;SDS011;12544;46.760;15.942;2024-02-23T05:10:57;0.90;;;0.90;;
24411;SDS011;12544;46.760;15.942;2024-02-23T05:13:23;0.93;;;0.90;;
24411;SDS011;12544;46.760;15.942;2024-02-23T05:15:49;3.08;;;1.10;;
24411;SDS011;12544;46.760;15.942;2024-02-23T05:18:15;1.27;;;1.00;;
24411;SDS011;12544;46.760;15.942;2024-02-23T05:20:40;1.00;;;1.00;;
24411;SDS011;12544;46.760;15.942;2024-02-23T05:23:06;1.17;;;1.08;;
24411;SDS011;12544;46.760;15.942;2024-02-23T05:25:32;1.00;;;1.00;;
24411;SDS011;12544;46.760;15.942;2024-02-23T05:27:58;1.20;;;1.13;;
24411;SDS011;12544;46.760;15.942;2024-02-23T05:30:23;1.20;;;1.10;;
24411;SDS011;12544;46.760;15.942;2024-02-23T05:32:51;1.10;;;1.10;;
24411;SDS011;12544;46.760;15.942;2024-02-23T05:35:17;1.10;;;0.90;;
24411;SDS011;12544;46.760;15.942;2024-02-23T05:37:43;1.27;;;1.00;;
24411;SDS011;12544;46.760;15.942;2024-02-23T05:40:09;1.20;;;1.10;;
24411;SDS011;12544;46.760;15.942;2024-02-23T05:42:38;1.20;;;1.20;;
24411;SDS011;12544;46.760;15.942;2024-02-23T05:45:04;1.45;;;1.25;;
24411;SDS011;12544;46.760;15.942;2024-02-23T05:47:34;1.20;;;1.10;;
24411;SDS011;12544;46.760;15.942;2024-02-23T05:50:02;0.93;;;0.93;;
24411;SDS011;12544;46.760;15.942;2024-02-23T05:52:29;3.83;;;1.27;;
24411;SDS011;12544;46.760;15.942;2024-02-23T05:54:57;1.15;;;1.10;;
24411;SDS011;12544;46.760;15.942;2024-02-23T05:57:25;1.38;;;1.20;;
24411;SDS011;12544;46.760;15.942;2024-02-23T05:59:54;1.30;;;1.20;;
24411;SDS011;12544;46.760;15.942;2024-02-23T06:02:20;1.50;;;1.30;;
24411;SDS011;12544;46.760;15.942;2024-02-23T06:04:46;1.65;;;1.13;;
24411;SDS011;12544;46.760;15.942;2024-02-23T06:07:12;2.13;;;1.33;;
24411;SDS011;12544;46.760;15.942;2024-02-23T06:09:40;2.55;;;1.10;;
24411;SDS011;12544;46.760;15.942;2024-02-23T06:12:06;2.65;;;1.30;;
24411;SDS011;12544;46.760;15.942;2024-02-23T06:14:32;1.90;;;1.05;;
24411;SDS011;12544;46.760;15.942;2024-02-23T06:16:58;1.10;;;1.02;;
24411;SDS011;12544;46.760;15.942;2024-02-23T06:19:24;1.13;;;1.02;;
24411;SDS011;12544;46.760;15.942;2024-02-23T06:21:49;1.15;;;1.00;;
24411;SDS011;12544;46.760;15.942;2024-02-23T06:24:15;1.05;;;0.98;;
24411;SDS011;12544;46.760;15.942;2024-02-23T06:26:49;1.17;;;1.08;;
24411;SDS011;12544;46.760;15.942;2024-02-23T06:29:16;0.93;;;0.93;;
24411;SDS011;12544;46.760;15.942;2024-02-23T06:31:41;1.08;;;0.90;;
24411;SDS011;12544;46.760;15.942;2024-02-23T06:34:07;1.30;;;1.20;;
24411;SDS011;12544;46.760;15.942;2024-02-23T06:36:33;1.20;;;1.10;;
24411;SDS011;12544;46.760;15.942;2024-02-23T06:38:59;1.48;;;1.30;;
24411;SDS011;12544;46.760;15.942;2024-02-23T06:41:25;0.95;;;0.95;;
24411;SDS011;12544;46.760;15.942;2024-02-23T06:43:51;1.25;;;1.08;;
24411;SDS011;12544;46.760;15.942;2024-02-23T06:46:18;0.90;;;0.90;;
24411;SDS011;12544;46.760;15.942;2024-02-23T06:48:47;1.20;;;1.10;;
24411;SDS011;12544;46.760;15.942;2024-02-23T06:51:13;1.40;;;1.35;;
24411;SDS011;12544;46.760;15.942;2024-02-23T06:53:39;0.93;;;0.93;;
24411;SDS011;12544;46.760;15.942;2024-02-23T06:56:04;1.08;;;1.05;;
24411;SDS011;12544;46.760;15.942;2024-02-23T06:58:30;1.45;;;1.35;;
24411;SDS011;12544;46.760;15.942;2024-02-23T07:00:56;1.00;;;1.00;;
24411;SDS011;12544;46.760;15.942;2024-02-23T07:03:22;1.23;;;1.05;;
24411;SDS011;12544;46.760;15.942;2024-02-23T07:05:47;1.55;;;1.40;;
24411;SDS011;12544;46.760;15.942;2024-02-23T07:08:15;1.02;;;0.93;;
24411;SDS011;12544;46.760;15.942;2024-02-23T07:10:40;1.27;;;1.00;;
24411;SDS011;12544;46.760;15.942;2024-02-23T07:13:06;0.90;;;0.90;;
24411;SDS011;12544;46.760;15.942;2024-02-23T07:15:32;1.83;;;1.20;;
24411;SDS011;12544;46.760;15.942;2024-02-23T07:17:58;1.08;;;1.05;;
24411;SDS011;12544;46.760;15.942;2024-02-23T07:20:24;1.55;;;1.20;;
24411;SDS011;12544;46.760;15.942;2024-02-23T07:22:49;2.80;;;0.90;;
24411;SDS011;12544;46.760;15.942;2024-02-23T07:25:18;3.88;;;1.00;;
24411;SDS011;12544;46.760;15.942;2024-02-23T07:27:47;1.00;;;1.00;;
24411;SDS011;12544;46.760;15.942;2024-02-23T07:30:16;1.15;;;1.00;;
24411;SDS011;12544;46.760;15.942;2024-02-23T07:32:42;0.90;;;0.90;;
24411;SDS011;12544;46.760;15.942;2024-02-23T07:35:09;3.05;;;1.00;;
24411;SDS011;12544;46.760;15.942;2024-02-23T07:37:35;1.10;;;1.00;;
24411;SDS011;12544;46.760;15.942;2024-02-23T07:40:01;1.10;;;1.00;;
24411;SDS011;12544;46.760;15.942;2024-02-23T07:42:29;1.00;;;0.90;;
24411;SDS011;12544;46.760;15.942;2024-02-23T07:44:55;1.02;;;0.93;;
24411;SDS011;12544;46.760;15.942;2024-02-23T07:47:21;1.20;;;1.08;;
24411;SDS011;12544;46.760;15.942;2024-02-23T07:49:47;3.80;;;0.90;;
24411;SDS011;12544;46.760;15.942;2024-02-23T07:52:13;0.80;;;0.80;;
24411;SDS011;12544;46.760;15.942;2024-02-23T07:54:38;1.52;;;0.80;;
24411;SDS011;12544;46.760;15.942;2024-02-23T07:57:04;0.90;;;0.90;;
24411;SDS011;12544;46.760;15.942;2024-02-23T07:59:30;0.90;;;0.90;;
24411;SDS011;12544;46.760;15.942;2024-02-23T08:01:56;1.17;;;1.00;;
24411;SDS011;12544;46.760;15.942;2024-02-23T08:04:22;0.90;;;0.90;;
24411;SDS011;12544;46.760;15.942;2024-02-23T08:06:48;1.08;;;1.00;;
24411;SDS011;12544;46.760;15.942;2024-02-23T08:09:14;0.90;;;0.80;;
24411;SDS011;12544;46.760;15.942;2024-02-23T08:11:40;1.40;;;1.10;;
24411;SDS011;12544;46.760;15.942;2024-02-23T08:14:05;1.30;;;1.20;;
24411;SDS011;12544;46.760;15.942;2024-02-23T08:16:31;1.00;;;0.90;;
24411;SDS011;12544;46.760;15.942;2024-02-23T08:18:57;1.77;;;1.20;;
24411;SDS011;12544;46.760;15.942;2024-02-23T08:21:23;1.10;;;1.00;;
24411;SDS011;12544;46.760;15.942;2024-02-23T08:23:49;1.27;;;1.00;;
24411;SDS011;12544;46.760;15.942;2024-02-23T08:26:15;2.83;;;1.20;;
24411;SDS011;12544;46.760;15.942;2024-02-23T08:28:41;1.75;;;1.33;;
24411;SDS011;12544;46.760;15.942;2024-02-23T08:31:06;2.55;;;1.35;;
24411;SDS011;12544;46.760;15.942;2024-02-23T08:33:32;1.83;;;0.95;;
24411;SDS011;12544;46.760;15.942;2024-02-23T08:35:57;3.13;;;1.27;;
24411;SDS011;12544;46.760;15.942;2024-02-23T08:38:27;1.20;;;1.10;;
24411;SDS011;12544;46.760;15.942;2024-02-23T08:40:53;3.67;;;1.10;;
24411;SDS011;12544;46.760;15.942;2024-02-23T08:43:18;1.60;;;1.50;;
24411;SDS011;12544;46.760;15.942;2024-02-23T08:45:45;2.22;;;1.35;;
24411;SDS011;12544;46.760;15.942;2024-02-23T08:48:10;1.00;;;0.95;;
24411;SDS011;12544;46.760;15.942;2024-02-23T08:50:39;1.27;;;1.10;;
24411;SDS011;12544;46.760;15.942;2024-02-23T08:53:05;1.40;;;1.10;;
24411;SDS011;12544;46.760;15.942;2024-02-23T08:55:40;1.73;;;1.20;;
24411;SDS011;12544;46.760;15.942;2024-02-23T08:58:05;4.00;;;2.22;;
24411;SDS011;12544;46.760;15.942;2024-02-23T09:00:31;3.40;;;1.20;;
24411;SDS011;12544;46.760;15.942;2024-02-23T09:02:57;1.52;;;1.23;;
24411;SDS011;12544;46.760;15.942;2024-02-23T09:05:23;1.10;;;1.10;;
24411;SDS011;12544;46.760;15.942;2024-02-23T09:07:48;1.40;;;1.17;;
24411;SDS011;12544;46.760;15.942;2024-02-23T09:10:14;1.27;;;1.15;;
24411;SDS011;12544;46.760;15.942;2024-02-23T09:12:40;1.55;;;1.08;;
24411;SDS011;12544;46.760;15.942;2024-02-23T09:15:06;1.17;;;1.05;;
24411;SDS011;12544;46.760;15.942;2024-02-23T09:17:32;1.83;;;1.45;;
24411;SDS011;12544;46.760;15.942;2024-02-23T09:19:58;1.20;;;1.10;;
24411;SDS011;12544;46.760;15.942;2024-02-23T09:22:23;2.38;;;1.23;;
24411;SDS011;12544;46.760;15.942;2024-02-23T09:24:49;1.05;;;0.98;;
24411;SDS011;12544;46.760;15.942;2024-02-23T09:27:15;1.67;;;1.10;;
24411;SDS011;12544;46.760;15.942;2024-02-23T09:29:40;2.75;;;1.23;;
24411;SDS011;12544;46.760;15.942;2024-02-23T09:32:07;3.00;;;1.80;;
24411;SDS011;12544;46.760;15.942;2024-02-23T09:34:33;2.70;;;1.80;;
24411;SDS011;12544;46.760;15.942;2024-02-23T09:36:58;2.70;;;2.47;;
24411;SDS011;12544;46.760;15.942;2024-02-23T09:39:24;5.47;;;2.55;;
24411;SDS011;12544;46.760;15.942;2024-02-23T09:41:51;2.60;;;1.80;;
24411;SDS011;12544;46.760;15.942;2024-02-23T09:44:19;1.77;;;1.10;;
24411;SDS011;12544;46.760;15.942;2024-02-23T09:46:48;1.00;;;0.85;;
24411;SDS011;12544;46.760;15.942;2024-02-23T09:49:17;1.20;;;1.10;;
24411;SDS011;12544;46.760;15.942;2024-02-23T09:51:43;2.13;;;1.60;;
24411;SDS011;12544;46.760;15.942;2024-02-23T09:54:09;2.03;;;1.67;;
24411;SDS011;12544;46.760;15.942;2024-02-23T09:56:35;1.50;;;1.20;;
24411;SDS011;12544;46.760;15.942;2024-02-23T09:59:02;1.83;;;1.50;;
24411;SDS011;12544;46.760;15.942;2024-02-23T10:01:29;2.08;;;1.80;;
24411;SDS011;12544;46.760;15.942;2024-02-23T10:03:56;2.28;;;2.03;;
24411;SDS011;12544;46.760;15.942;2024-02-23T10:06:24;2.35;;;1.73;;
24411;SDS011;12544;46.760;15.942;2024-02-23T10:08:50;1.98;;;1.40;;
24411;SDS011;12544;46.760;15.942;2024-02-23T10:11:22;3.03;;;1.67;;
24411;SDS011;12544;46.760;15.942;2024-02-23T10:13:49;2.17;;;1.40;;
24411;SDS011;12544;46.760;15.942;2024-02-23T10:16:15;1.98;;;1.48;;
24411;SDS011;12544;46.760;15.942;2024-02-23T10:18:41;2.08;;;1.30;;
24411;SDS011;12544;46.760;15.942;2024-02-23T10:21:07;1.65;;;1.55;;
24411;SDS011;12544;46.760;15.942;2024-02-23T10:23:33;2.30;;;1.50;;
24411;SDS011;12544;46.760;15.942;2024-02-23T10:28:57;1.90;;;1.60;;
24411;SDS011;12544;46.760;15.942;2024-02-23T10:31:24;2.65;;;1.52;;
24411;SDS011;12544;46.760;15.942;2024-02-23T10:33:50;1.80;;;1.52;;
24411;SDS011;12544;46.760;15.942;2024-02-23T10:36:17;4.13;;;1.70;;
24411;SDS011;12544;46.760;15.942;2024-02-23T10:38:44;1.70;;;1.60;;
24411;SDS011;12544;46.760;15.942;2024-02-23T10:41:12;2.40;;;1.58;;
24411;SDS011;12544;46.760;15.942;2024-02-23T10:43:41;1.40;;;1.30;;
24411;SDS011;12544;46.760;15.942;2024-02-23T10:46:14;1.88;;;1.73;;
24411;SDS011;12544;46.760;15.942;2024-02-23T10:48:43;2.33;;;1.35;;
24411;SDS011;12544;46.760;15.942;2024-02-23T10:51:10;2.22;;;1.60;;
24411;SDS011;12544;46.760;15.942;2024-02-23T10:53:39;1.75;;;1.50;;
24411;SDS011;12544;46.760;15.942;2024-02-23T10:56:05;1.88;;;1.50;;
24411;SDS011;12544;46.760;15.942;2024-02-23T11:01:54;1.63;;;1.42;;
24411;SDS011;12544;46.760;15.942;2024-02-23T11:04:22;3.50;;;1.80;;
24411;SDS011;12544;46.760;15.942;2024-02-23T11:06:51;2.30;;;2.10;;
24411;SDS011;12544;46.760;15.942;2024-02-23T11:09:22;1.98;;;1.65;;
24411;SDS011;12544;46.760;15.942;2024-02-23T11:11:55;1.63;;;1.52;;
24411;SDS011;12544;46.760;15.942;2024-02-23T11:14:34;2.40;;;1.67;;
24411;SDS011;12544;46.760;15.942;2024-02-23T11:17:01;2.10;;;1.83;;
24411;SDS011;12544;46.760;15.942;2024-02-23T11:19:36;4.45;;;2.03;;
24411;SDS011;12544;46.760;15.942;2024-02-23T11:22:03;2.63;;;2.42;;
24411;SDS011;12544;46.760;15.942;2024-02-23T11:24:30;2.53;;;2.30;;
24411;SDS011;12544;46.760;15.942;2024-02-23T11:26:57;3.63;;;3.25;;
24411;SDS011;12544;46.760;15.942;2024-02-23T11:29:25;4.53;;;4.13;;
24411;SDS011;12544;46.760;15.942;2024-02-23T11:31:52;5.43;;;2.58;;
24411;SDS011;12544;46.760;15.942;2024-02-23T11:34:22;2.47;;;2.25;;
24411;SDS011;12544;46.760;15.942;2024-02-23T11:36:51;3.88;;;2.30;;
24411;SDS011;12544;46.760;15.942;2024-02-23T11:39:18;3.30;;;2.45;;
24411;SDS011;12544;46.760;15.942;2024-02-23T11:41:44;4.28;;;2.80;;
24411;SDS011;12544;46.760;15.942;2024-02-23T11:44:12;4.35;;;2.65;;
24411;SDS011;12544;46.760;15.942;2024-02-23T11:46:38;3.85;;;2.70;;
24411;SDS011;12544;46.760;15.942;2024-02-23T11:49:04;4.88;;;3.20;;
24411;SDS011;12544;46.760;15.942;2024-02-23T11:51:29;4.25;;;2.88;;
24411;SDS011;12544;46.760;15.942;2024-02-23T11:57:07;13.05;;;6.80;;
24411;SDS011;12544;46.760;15.942;2024-02-23T11:59:33;11.43;;;7.43;;
24411;SDS011;12544;46.760;15.942;2024-02-23T12:01:58;4.03;;;3.42;;
24411;SDS011;12544;46.760;15.942;2024-02-23T12:04:26;4.45;;;3.75;;
24411;SDS011;12544;46.760;15.942;2024-02-23T12:06:53;3.38;;;2.70;;
24411;SDS011;12544;46.760;15.942;2024-02-23T12:09:19;3.70;;;2.92;;
24411;SDS011;12544;46.760;15.942;2024-02-23T12:11:45;5.03;;;3.10;;
24411;SDS011;12544;46.760;15.942;2024-02-23T12:14:11;3.95;;;3.30;;
24411;SDS011;12544;46.760;15.942;2024-02-23T12:19:59;13.30;;;3.78;;
24411;SDS011;12544;46.760;15.942;2024-02-23T12:22:25;7.10;;;3.95;;
24411;SDS011;12544;46.760;15.942;2024-02-23T12:24:50;5.97;;;3.25;;
24411;SDS011;12544;46.760;15.942;2024-02-23T12:27:17;5.80;;;3.42;;
24411;SDS011;12544;46.760;15.942;2024-02-23T12:29:50;3.72;;;3.38;;
24411;SDS011;12544;46.760;15.942;2024-02-23T12:32:19;3.70;;;3.30;;
24411;SDS011;12544;46.760;15.942;2024-02-23T12:34:48;3.60;;;3.30;;
24411;SDS011;12544;46.760;15.942;2024-02-23T12:37:14;4.78;;;3.88;;
24411;SDS011;12544;46.760;15.942;2024-02-23T12:39:41;5.75;;;4.30;;
24411;SDS011;12544;46.760;15.942;2024-02-23T12:42:07;4.80;;;3.80;;
24411;SDS011;12544;46.760;15.942;2024-02-23T12:44:33;4.85;;;4.35;;
24411;SDS011;12544;46.760;15.942;2024-02-23T12:46:58;6.32;;;4.43;;
24411;SDS011;12544;46.760;15.942;2024-02-23T12:49:24;5.47;;;4.60;;
24411;SDS011;12544;46.760;15.942;2024-02-23T12:51:50;5.25;;;4.75;;
24411;SDS011;12544;46.760;15.942;2024-02-23T12:54:15;6.15;;;4.78;;
24411;SDS011;12544;46.760;15.942;2024-02-23T12:56:41;6.72;;;5.15;;
24411;SDS011;12544;46.760;15.942;2024-02-23T12:59:07;6.10;;;4.95;;
24411;SDS011;12544;46.760;15.942;2024-02-23T13:01:34;8.23;;;5.15;;
24411;SDS011;12544;46.760;15.942;2024-02-23T13:04:04;6.80;;;5.07;;
24411;SDS011;12544;46.760;15.942;2024-02-23T13:06:37;6.45;;;4.70;;
24411;SDS011;12544;46.760;15.942;2024-02-23T13:09:03;5.43;;;4.93;;
24411;SDS011;12544;46.760;15.942;2024-02-23T13:11:30;6.18;;;4.75;;
24411;SDS011;12544;46.760;15.942;2024-02-23T13:13:59;6.63;;;4.38;;
24411;SDS011;12544;46.760;15.942;2024-02-23T13:16:25;4.30;;;3.90;;
24411;SDS011;12544;46.760;15.942;2024-02-23T13:18:50;4.80;;;4.15;;
24411;SDS011;12544;46.760;15.942;2024-02-23T13:21:16;5.32;;;4.15;;
24411;SDS011;12544;46.760;15.942;2024-02-23T13:23:42;4.40;;;3.90;;
24411;SDS011;12544;46.760;15.942;2024-02-23T13:26:08;4.43;;;4.03;;
24411;SDS011;12544;46.760;15.942;2024-02-23T13:28:35;5.32;;;4.38;;
24411;SDS011;12544;46.760;15.942;2024-02-23T13:31:02;11.43;;;8.82;;
24411;SDS011;12544;46.760;15.942;2024-02-23T13:33:28;7.93;;;7.10;;
24411;SDS011;12544;46.760;15.942;2024-02-23T13:35:53;7.18;;;5.38;;
24411;SDS011;12544;46.760;15.942;2024-02-23T13:38:20;5.00;;;4.43;;
24411;SDS011;12544;46.760;15.942;2024-02-23T13:40:45;7.68;;;3.70;;
24411;SDS011;12544;46.760;15.942;2024-02-23T13:43:15;5.55;;;4.25;;
24411;SDS011;12544;46.760;15.942;2024-02-23T13:45:51;6.50;;;4.85;;
24411;SDS011;12544;46.760;15.942;2024-02-23T13:48:17;4.38;;;3.97;;
24411;SDS011;12544;46.760;15.942;2024-02-23T13:50:46;5.75;;;4.65;;
24411;SDS011;12544;46.760;15.942;2024-02-23T13:53:12;5.55;;;4.50;;
24411;SDS011;12544;46.760;15.942;2024-02-23T13:55:38;4.68;;;3.80;;
24411;SDS011;12544;46.760;15.942;2024-02-23T13:58:04;6.28;;;4.03;;
24411;SDS011;12544;46.760;15.942;2024-02-23T14:00:30;4.95;;;4.30;;
24411;SDS011;12544;46.760;15.942;2024-02-23T14:02:55;5.93;;;4.93;;
24411;SDS011;12544;46.760;15.942;2024-02-23T14:05:21;4.63;;;4.20;;
24411;SDS011;12544;46.760;15.942;2024-02-23T14:07:50;5.38;;;4.40;;
24411;SDS011;12544;46.760;15.942;2024-02-23T14:10:16;4.45;;;4.05;;
24411;SDS011;12544;46.760;15.942;2024-02-23T14:12:42;5.63;;;4.65;;
24411;SDS011;12544;46.760;15.942;2024-02-23T14:15:08;5.75;;;5.15;;
24411;SDS011;12544;46.760;15.942;2024-02-23T14:17:35;5.57;;;4.07;;
24411;SDS011;12544;46.760;15.942;2024-02-23T14:20:00;5.90;;;4.38;;
24411;SDS011;12544;46.760;15.942;2024-02-23T14:22:27;5.18;;;4.20;;
24411;SDS011;12544;46.760;15.942;2024-02-23T14:24:53;6.35;;;4.13;;
24411;SDS011;12544;46.760;15.942;2024-02-23T14:27:19;5.88;;;4.57;;
24411;SDS011;12544;46.760;15.942;2024-02-23T14:29:44;5.68;;;5.07;;
24411;SDS011;12544;46.760;15.942;2024-02-23T14:32:14;4.20;;;3.80;;
24411;SDS011;12544;46.760;15.942;2024-02-23T14:34:43;5.43;;;4.82;;
24411;SDS011;12544;46.760;15.942;2024-02-23T14:37:09;6.95;;;4.82;;
24411;SDS011;12544;46.760;15.942;2024-02-23T14:39:34;6.03;;;4.82;;
24411;SDS011;12544;46.760;15.942;2024-02-23T14:42:00;4.68;;;4.00;;